createdAt,value
2023-05-21T00:01:07.376Z,7.65
2023-05-21T00:03:36.217Z,7.63
2023-05-21T00:06:03.908Z,7.80
2023-05-21T00:08:31.152Z,7.28
2023-05-21T00:10:58.238Z,7.25
2023-05-21T00:13:25.063Z,7.15
2023-05-21T00:15:51.913Z,7.43
2023-05-21T00:18:18.874Z,7.13
2023-05-21T00:20:45.860Z,7.15
2023-05-21T00:23:12.856Z,6.88
2023-05-21T00:25:39.636Z,7.00
2023-05-21T00:28:06.611Z,7.05
2023-05-21T00:30:33.384Z,6.93
2023-05-21T00:33:02.621Z,7.35
2023-05-21T00:35:29.735Z,6.80
2023-05-21T00:37:57.313Z,6.68
2023-05-21T00:40:24.313Z,6.72
2023-05-21T00:42:51.094Z,7.10
2023-05-21T00:45:17.996Z,7.10
2023-05-21T00:47:45.956Z,6.97
2023-05-21T00:50:14.868Z,6.65
2023-05-21T00:52:43.201Z,7.18
2023-05-21T00:55:10.972Z,6.88
2023-05-21T00:57:39.235Z,7.47
2023-05-21T01:00:10.706Z,7.18
2023-05-21T01:02:38.203Z,7.10
2023-05-21T01:05:06.726Z,7.35
2023-05-21T01:07:35.758Z,7.93
2023-05-21T01:10:07.797Z,7.32
2023-05-21T01:12:36.496Z,7.57
2023-05-21T01:15:04.811Z,7.97
2023-05-21T01:17:32.115Z,7.43
2023-05-21T01:20:00.279Z,7.80
2023-05-21T01:22:32.354Z,7.22
2023-05-21T01:25:02.771Z,7.95
2023-05-21T01:27:29.719Z,7.20
2023-05-21T01:29:57.216Z,7.82
2023-05-21T01:32:24.025Z,7.72
2023-05-21T01:34:57.057Z,7.55
2023-05-21T01:37:36.619Z,7.63
2023-05-21T01:40:13.944Z,7.53
2023-05-21T01:42:44.256Z,7.60
2023-05-21T01:45:14.543Z,6.90
2023-05-21T01:47:45.075Z,7.40
2023-05-21T01:50:12.239Z,7.13
2023-05-21T01:52:39.066Z,7.45
2023-05-21T01:55:06.300Z,7.95
2023-05-21T01:57:33.082Z,7.43
2023-05-21T02:00:01.199Z,7.72
2023-05-21T02:02:28.293Z,7.38
2023-05-21T02:04:55.081Z,7.35
2023-05-21T02:07:22.654Z,7.97
2023-05-21T02:09:49.421Z,7.55
2023-05-21T02:12:16.243Z,7.70
2023-05-21T02:14:43.043Z,7.32
2023-05-21T02:17:10.348Z,7.78
2023-05-21T02:19:37.290Z,7.35
2023-05-21T02:22:04.155Z,7.70
2023-05-21T02:24:31.361Z,7.70
2023-05-21T02:26:58.618Z,7.82
2023-05-21T02:29:25.547Z,7.43
2023-05-21T02:31:52.279Z,6.97
2023-05-21T02:34:20.708Z,7.70
2023-05-21T02:36:52.383Z,7.22
2023-05-21T02:41:47.654Z,7.30
2023-05-21T02:44:14.426Z,7.85
2023-05-21T02:46:41.214Z,7.82
2023-05-21T02:49:07.970Z,6.95
2023-05-21T02:51:34.715Z,7.78
2023-05-21T02:54:01.464Z,8.23
2023-05-21T02:56:28.619Z,7.43
2023-05-21T02:58:55.356Z,6.65
2023-05-21T03:01:22.091Z,7.53
2023-05-21T03:03:48.980Z,7.95
2023-05-21T03:06:16.400Z,7.55
2023-05-21T03:08:43.199Z,7.47
2023-05-21T03:11:10.021Z,7.82
2023-05-21T03:13:36.820Z,7.65
2023-05-21T03:16:05.304Z,7.70
2023-05-21T03:18:32.083Z,7.35
2023-05-21T03:20:59.046Z,7.47
2023-05-21T03:23:26.920Z,7.90
2023-05-21T03:25:54.090Z,7.55
2023-05-21T03:28:20.995Z,8.02
2023-05-21T03:30:49.717Z,8.50
2023-05-21T03:33:16.615Z,7.65
2023-05-21T03:35:43.462Z,8.20
2023-05-21T03:38:10.276Z,7.93
2023-05-21T03:40:37.053Z,8.27
2023-05-21T03:43:03.812Z,8.48
2023-05-21T03:45:30.720Z,8.07
2023-05-21T03:47:57.609Z,7.97
2023-05-21T03:50:24.465Z,8.10
2023-05-21T03:52:51.242Z,8.65
2023-05-21T03:55:18.011Z,8.07
2023-05-21T03:57:44.742Z,8.13
2023-05-21T04:00:11.922Z,8.57
2023-05-21T04:02:38.820Z,8.35
2023-05-21T04:05:07.091Z,8.55
2023-05-21T04:07:33.944Z,8.73
2023-05-21T04:10:00.666Z,8.15
2023-05-21T04:12:27.440Z,8.35
2023-05-21T04:14:54.276Z,8.13
2023-05-21T04:17:21.704Z,8.35
2023-05-21T04:19:48.790Z,7.82
2023-05-21T04:22:15.928Z,8.13
2023-05-21T04:24:42.732Z,8.45
2023-05-21T04:27:10.055Z,8.25
2023-05-21T04:29:37.692Z,7.78
2023-05-21T04:32:05.597Z,8.52
2023-05-21T04:34:33.852Z,8.43
2023-05-21T04:37:02.202Z,8.02
2023-05-21T04:39:29.199Z,7.95
2023-05-21T04:41:56.643Z,8.50
2023-05-21T04:44:23.495Z,7.93
2023-05-21T04:46:50.683Z,7.90
2023-05-21T04:49:17.504Z,8.43
2023-05-21T04:51:44.207Z,7.88
2023-05-21T04:54:11.175Z,8.38
2023-05-21T04:56:38.035Z,9.10
2023-05-21T04:59:06.201Z,8.88
2023-05-21T05:01:35.040Z,8.32
2023-05-21T05:04:01.947Z,8.35
2023-05-21T05:06:28.798Z,7.75
2023-05-21T05:08:55.577Z,8.15
2023-05-21T05:11:22.501Z,7.85
2023-05-21T05:13:49.433Z,7.88
2023-05-21T05:16:18.444Z,8.60
2023-05-21T05:18:45.329Z,7.55
2023-05-21T05:21:12.206Z,8.07
2023-05-21T05:23:38.959Z,8.60
2023-05-21T05:26:06.046Z,8.05
2023-05-21T05:28:32.900Z,8.23
2023-05-21T05:30:59.652Z,8.15
2023-05-21T05:33:26.455Z,8.73
2023-05-21T05:35:53.200Z,8.77
2023-05-21T05:38:20.450Z,8.02
2023-05-21T05:40:47.212Z,8.05
2023-05-21T05:43:13.984Z,8.27
2023-05-21T05:45:40.899Z,8.02
2023-05-21T05:48:07.840Z,8.68
2023-05-21T05:50:34.654Z,8.20
2023-05-21T05:53:01.392Z,8.73
2023-05-21T05:55:28.250Z,8.60
2023-05-21T05:57:55.061Z,8.10
2023-05-21T06:00:22.295Z,7.85
2023-05-21T06:02:49.200Z,7.68
2023-05-21T06:05:16.487Z,8.10
2023-05-21T06:07:43.298Z,8.00
2023-05-21T06:10:10.799Z,8.05
2023-05-21T06:12:37.592Z,8.25
2023-05-21T06:15:05.630Z,8.40
2023-05-21T06:17:32.494Z,8.43
2023-05-21T06:19:59.499Z,7.90
2023-05-21T06:22:26.266Z,7.88
2023-05-21T06:24:55.985Z,8.50
2023-05-21T06:27:22.769Z,8.65
2023-05-21T06:29:49.530Z,8.40
2023-05-21T06:32:16.290Z,7.85
2023-05-21T06:34:43.100Z,8.00
2023-05-21T06:37:09.803Z,8.40
2023-05-21T06:39:36.571Z,7.82
2023-05-21T06:42:03.361Z,7.68
2023-05-21T06:44:30.155Z,8.48
2023-05-21T06:46:56.918Z,8.57
2023-05-21T06:49:23.735Z,9.35
2023-05-21T06:51:50.475Z,8.75
2023-05-21T06:54:17.237Z,8.90
2023-05-21T06:56:44.022Z,8.63
2023-05-21T06:59:10.947Z,9.35
2023-05-21T07:01:37.807Z,9.10
2023-05-21T07:04:04.787Z,8.77
2023-05-21T07:06:32.113Z,9.23
2023-05-21T07:08:58.867Z,9.23
2023-05-21T07:11:28.797Z,8.82
2023-05-21T07:14:00.359Z,8.85
2023-05-21T07:18:53.955Z,9.27
2023-05-21T07:21:20.858Z,9.57
2023-05-21T07:23:47.582Z,9.77
2023-05-21T07:26:14.373Z,9.60
2023-05-21T07:28:41.383Z,9.68
2023-05-21T07:31:08.476Z,9.85
2023-05-21T07:33:35.410Z,10.02
2023-05-21T07:36:02.234Z,9.63
2023-05-21T07:38:29.014Z,9.48
2023-05-21T07:40:56.834Z,9.10
2023-05-21T07:43:24.119Z,9.80
2023-05-21T07:45:51.267Z,9.10
2023-05-21T07:48:18.886Z,9.18
2023-05-21T07:50:48.018Z,8.80
2023-05-21T07:53:14.756Z,9.15
2023-05-21T07:55:47.747Z,8.65
2023-05-21T07:58:18.220Z,8.38
2023-05-21T08:00:47.283Z,8.35
2023-05-21T08:03:18.504Z,7.95
2023-05-21T08:05:49.288Z,8.23
2023-05-21T08:08:17.785Z,8.60
2023-05-21T08:10:44.845Z,8.32
2023-05-21T08:13:16.548Z,8.60
2023-05-21T08:15:43.729Z,8.50
2023-05-21T08:18:11.938Z,8.75
2023-05-21T08:20:38.879Z,8.63
2023-05-21T08:23:05.632Z,8.27
2023-05-21T08:25:32.417Z,8.48
2023-05-21T08:27:59.269Z,9.05
2023-05-21T08:30:26.285Z,8.57
2023-05-21T08:32:53.083Z,8.70
2023-05-21T08:35:19.919Z,9.07
2023-05-21T08:37:46.682Z,9.45
2023-05-21T08:40:13.669Z,8.63
2023-05-21T08:42:45.135Z,8.38
2023-05-21T08:47:44.024Z,8.90
2023-05-21T08:50:13.864Z,8.13
2023-05-21T08:52:41.344Z,8.23
2023-05-21T08:55:09.263Z,8.75
2023-05-21T08:57:36.727Z,8.18
2023-05-21T09:00:06.469Z,8.70
2023-05-21T09:02:34.763Z,8.60
2023-05-21T09:05:03.248Z,9.27
2023-05-21T09:07:34.282Z,9.30
2023-05-21T09:10:08.746Z,9.27
2023-05-21T09:12:35.927Z,8.23
2023-05-21T09:15:03.885Z,9.00
2023-05-21T09:17:30.967Z,8.45
2023-05-21T09:20:17.533Z,8.10
2023-05-21T09:22:45.594Z,8.30
2023-05-21T09:25:15.882Z,8.20
2023-05-21T09:27:43.009Z,7.80
2023-05-21T09:30:15.498Z,7.72
2023-05-21T09:32:43.116Z,8.27
2023-05-21T09:35:11.938Z,7.25
2023-05-21T09:37:39.456Z,8.55
2023-05-21T09:40:16.489Z,8.00
2023-05-21T09:42:54.190Z,7.95
2023-05-21T09:45:28.113Z,8.23
2023-05-21T09:47:56.390Z,8.40
2023-05-21T09:50:27.894Z,7.85
2023-05-21T09:52:55.675Z,8.50
2023-05-21T09:55:23.541Z,7.68
2023-05-21T09:57:51.434Z,8.20
2023-05-21T10:00:21.410Z,8.40
2023-05-21T10:02:49.764Z,8.52
2023-05-21T10:05:17.744Z,7.55
2023-05-21T10:07:51.533Z,8.30
2023-05-21T10:10:24.143Z,7.85
2023-05-21T10:13:12.579Z,7.95
2023-05-21T10:15:44.157Z,7.70
2023-05-21T10:18:13.041Z,8.38
2023-05-21T10:20:40.362Z,7.35
2023-05-21T10:23:07.650Z,7.47
2023-05-21T10:25:36.164Z,7.13
2023-05-21T10:28:03.492Z,7.55
2023-05-21T10:30:31.195Z,8.75
2023-05-21T10:32:59.696Z,7.68
2023-05-21T10:35:28.588Z,8.05
2023-05-21T10:37:59.038Z,7.70
2023-05-21T10:40:25.993Z,7.90
2023-05-21T10:43:18.965Z,8.07
2023-05-21T10:46:01.598Z,8.38
2023-05-21T10:48:43.441Z,7.85
2023-05-21T10:51:25.653Z,8.45
2023-05-21T10:54:20.435Z,8.85
2023-05-21T10:57:05.709Z,8.60
2023-05-21T10:59:57.938Z,9.07
2023-05-21T11:02:26.717Z,8.65
2023-05-21T11:05:00.650Z,8.55
2023-05-21T11:07:53.778Z,8.60
2023-05-21T11:10:40.882Z,9.38
2023-05-21T11:13:08.476Z,8.63
2023-05-21T11:16:01.471Z,9.50
2023-05-21T11:18:33.981Z,8.95
2023-05-21T11:21:18.621Z,8.57
2023-05-21T11:23:51.547Z,8.07
2023-05-21T11:26:24.213Z,8.48
2023-05-21T11:29:11.395Z,8.70
2023-05-21T11:31:38.730Z,8.68
2023-05-21T11:34:28.981Z,8.45
2023-05-21T11:37:23.179Z,8.82
2023-05-21T11:39:51.153Z,8.18
2023-05-21T11:42:38.909Z,8.65
2023-05-21T11:45:06.163Z,9.00
2023-05-21T11:47:33.105Z,9.20
2023-05-21T11:50:01.897Z,7.93
2023-05-21T11:52:33.196Z,8.10
2023-05-21T11:57:31.266Z,9.60
2023-05-21T12:02:33.059Z,8.02
2023-05-21T12:05:00.602Z,7.40
2023-05-21T12:07:29.770Z,7.10
2023-05-21T12:09:56.956Z,7.60
2023-05-21T12:12:29.385Z,6.45
2023-05-21T12:15:02.924Z,7.07
2023-05-21T12:17:31.712Z,7.13
2023-05-21T12:19:58.970Z,7.00
2023-05-21T12:22:27.857Z,7.40
2023-05-21T12:24:54.663Z,7.82
2023-05-21T12:27:22.230Z,6.82
2023-05-21T12:29:53.100Z,6.90
2023-05-21T12:32:21.303Z,6.75
2023-05-21T12:34:54.477Z,7.20
2023-05-21T12:37:22.319Z,6.72
2023-05-21T12:39:51.301Z,6.32
2023-05-21T12:42:26.863Z,6.10
2023-05-21T12:44:54.322Z,6.97
2023-05-21T12:47:25.029Z,7.25
2023-05-21T12:49:55.838Z,7.63
2023-05-21T12:52:23.117Z,6.43
2023-05-21T12:54:52.237Z,6.80
2023-05-21T12:57:21.212Z,7.22
2023-05-21T12:59:52.231Z,6.97
2023-05-21T13:02:38.326Z,6.63
2023-05-21T13:05:09.776Z,6.18
2023-05-21T13:07:38.576Z,6.10
2023-05-21T13:10:06.520Z,5.78
2023-05-21T13:12:34.507Z,6.10
2023-05-21T13:15:03.299Z,6.13
2023-05-21T13:17:30.391Z,6.15
2023-05-21T13:20:09.296Z,6.47
2023-05-21T13:22:39.147Z,6.47
2023-05-21T13:25:07.150Z,7.13
2023-05-21T13:27:33.966Z,6.47
2023-05-21T13:30:01.053Z,6.25
2023-05-21T13:32:27.919Z,6.32
2023-05-21T13:34:54.738Z,6.22
2023-05-21T13:37:21.531Z,6.47
2023-05-21T13:39:48.417Z,5.50
2023-05-21T13:42:15.906Z,6.63
2023-05-21T13:44:42.748Z,5.57
2023-05-21T13:47:10.591Z,5.75
2023-05-21T13:49:38.438Z,5.63
2023-05-21T13:52:06.067Z,5.72
2023-05-21T13:54:32.907Z,6.07
2023-05-21T13:57:00.081Z,4.95
2023-05-21T13:59:26.919Z,6.32
2023-05-21T14:01:53.822Z,5.22
2023-05-21T14:04:21.288Z,5.85
2023-05-21T14:06:48.321Z,5.50
2023-05-21T14:09:15.331Z,6.40
2023-05-21T14:11:42.194Z,5.97
2023-05-21T14:14:08.958Z,5.70
2023-05-21T14:16:36.427Z,5.35
2023-05-21T14:19:03.727Z,5.32
2023-05-21T14:21:31.665Z,5.80
2023-05-21T14:23:58.506Z,6.47
2023-05-21T14:26:26.695Z,5.40
2023-05-21T14:28:53.458Z,5.57
2023-05-21T14:31:21.592Z,5.35
2023-05-21T14:33:48.399Z,5.65
2023-05-21T14:36:15.950Z,5.93
2023-05-21T14:38:42.814Z,5.82
2023-05-21T14:41:09.914Z,6.47
2023-05-21T14:43:36.666Z,5.90
2023-05-21T14:46:03.734Z,5.93
2023-05-21T14:48:30.505Z,5.45
2023-05-21T14:50:57.244Z,6.55
2023-05-21T14:53:24.008Z,6.05
2023-05-21T14:55:50.804Z,5.95
2023-05-21T14:58:17.741Z,7.38
2023-05-21T15:00:44.605Z,6.32
2023-05-21T15:03:12.933Z,6.75
2023-05-21T15:05:39.925Z,6.57
2023-05-21T15:08:08.094Z,6.10
2023-05-21T15:10:34.927Z,5.70
2023-05-21T15:13:01.670Z,5.68
2023-05-21T15:15:28.524Z,6.07
2023-05-21T15:17:58.073Z,5.72
2023-05-21T15:20:25.114Z,5.72
2023-05-21T15:22:59.077Z,5.72
2023-05-21T15:25:35.856Z,5.28
2023-05-21T15:28:02.811Z,5.53
2023-05-21T15:30:29.569Z,5.68
2023-05-21T15:32:56.329Z,6.05
2023-05-21T15:35:23.242Z,5.78
2023-05-21T15:37:50.113Z,5.93
2023-05-21T15:40:16.910Z,5.75
2023-05-21T15:42:43.694Z,5.47
2023-05-21T15:45:10.870Z,5.20
2023-05-21T15:47:42.730Z,4.88
2023-05-21T15:50:10.752Z,5.10
2023-05-21T15:52:37.556Z,5.43
2023-05-21T15:55:04.579Z,5.40
2023-05-21T15:57:31.379Z,4.63
2023-05-21T15:59:58.139Z,5.70
2023-05-21T16:02:24.901Z,5.13
2023-05-21T16:04:51.975Z,5.63
2023-05-21T16:07:19.184Z,6.43
2023-05-21T16:09:45.968Z,8.38
2023-05-21T16:12:13.394Z,5.63
2023-05-21T16:14:40.159Z,5.22
2023-05-21T16:17:07.166Z,5.18
2023-05-21T16:19:34.006Z,5.50
2023-05-21T16:22:01.880Z,5.45
2023-05-21T16:24:28.670Z,5.32
2023-05-21T16:26:55.467Z,5.28
2023-05-21T16:29:22.327Z,5.30
2023-05-21T16:31:49.203Z,5.78
2023-05-21T16:34:16.123Z,4.65
2023-05-21T16:36:42.846Z,4.90
2023-05-21T16:39:09.606Z,4.65
2023-05-21T16:41:36.467Z,5.05
2023-05-21T16:44:03.307Z,5.35
2023-05-21T16:46:30.116Z,5.38
2023-05-21T16:48:56.904Z,5.30
2023-05-21T16:51:23.628Z,5.07
2023-05-21T16:53:50.413Z,4.97
2023-05-21T16:56:17.196Z,4.85
2023-05-21T16:58:44.202Z,5.13
2023-05-21T17:01:11.159Z,5.18
2023-05-21T17:03:38.607Z,4.80
2023-05-21T17:06:07.544Z,4.40
2023-05-21T17:08:34.291Z,4.68
2023-05-21T17:11:01.107Z,4.90
2023-05-21T17:13:27.841Z,4.28
2023-05-21T17:15:54.736Z,4.57
2023-05-21T17:18:21.537Z,4.45
2023-05-21T17:20:48.326Z,4.70
2023-05-21T17:23:15.222Z,4.82
2023-05-21T17:25:42.108Z,4.90
2023-05-21T17:28:09.020Z,4.82
2023-05-21T17:30:35.893Z,5.00
2023-05-21T17:33:03.799Z,4.65
2023-05-21T17:35:30.703Z,4.65
2023-05-21T17:37:57.491Z,4.82
2023-05-21T17:40:25.026Z,4.57
2023-05-21T17:42:52.629Z,4.63
2023-05-21T17:45:20.080Z,4.60
2023-05-21T17:47:46.999Z,4.40
2023-05-21T17:50:13.761Z,4.82
2023-05-21T17:52:40.619Z,5.00
2023-05-21T17:55:08.133Z,4.65
2023-05-21T17:57:38.119Z,5.32
2023-05-21T18:00:06.776Z,5.03
2023-05-21T18:02:33.631Z,4.72
2023-05-21T18:05:00.546Z,4.38
2023-05-21T18:07:27.353Z,4.80
2023-05-21T18:09:54.116Z,5.70
2023-05-21T18:12:21.356Z,4.55
2023-05-21T18:14:48.232Z,4.90
2023-05-21T18:17:15.008Z,4.47
2023-05-21T18:19:41.758Z,5.20
2023-05-21T18:22:08.646Z,5.05
2023-05-21T18:24:37.475Z,5.30
2023-05-21T18:27:04.364Z,5.05
2023-05-21T18:29:31.187Z,5.07
2023-05-21T18:31:58.036Z,5.15
2023-05-21T18:34:24.818Z,4.93
2023-05-21T18:36:54.441Z,5.00
2023-05-21T18:39:24.595Z,5.70
2023-05-21T18:41:55.806Z,5.78
2023-05-21T18:44:29.707Z,4.82
2023-05-21T18:46:57.782Z,5.50
2023-05-21T18:49:24.807Z,5.47
2023-05-21T18:51:51.653Z,5.72
2023-05-21T18:54:18.401Z,6.57
2023-05-21T18:56:45.138Z,5.45
2023-05-21T18:59:11.892Z,6.55
2023-05-21T19:01:38.678Z,6.15
2023-05-21T19:04:05.739Z,6.00
2023-05-21T19:06:32.462Z,5.65
2023-05-21T19:08:59.361Z,5.45
2023-05-21T19:11:31.050Z,6.55
2023-05-21T19:13:58.962Z,5.97
2023-05-21T19:16:25.882Z,7.03
2023-05-21T19:18:52.826Z,6.78
2023-05-21T19:21:19.799Z,6.95
2023-05-21T19:23:53.352Z,6.20
2023-05-21T19:26:22.420Z,6.07
2023-05-21T19:28:53.307Z,6.93
2023-05-21T19:31:22.069Z,6.88
2023-05-21T19:33:49.372Z,7.07
2023-05-21T19:36:16.368Z,7.05
2023-05-21T19:38:48.283Z,6.75
2023-05-21T19:41:16.405Z,6.82
2023-05-21T19:43:43.302Z,7.63
2023-05-21T19:46:10.304Z,7.80
2023-05-21T19:48:37.277Z,7.90
2023-05-21T19:51:04.907Z,7.82
2023-05-21T19:53:31.697Z,7.38
2023-05-21T19:55:58.513Z,7.60
2023-05-21T19:58:26.995Z,7.97
2023-05-21T20:00:59.171Z,7.88
2023-05-21T20:03:26.839Z,7.95
2023-05-21T20:05:54.236Z,7.85
2023-05-21T20:08:21.445Z,8.20
2023-05-21T20:10:51.428Z,8.45
2023-05-21T20:13:19.029Z,8.20
2023-05-21T20:15:47.819Z,7.90
2023-05-21T20:18:15.594Z,8.40
2023-05-21T20:20:42.880Z,8.45
2023-05-21T20:23:09.735Z,9.00
2023-05-21T20:25:36.578Z,8.43
2023-05-21T20:28:04.294Z,8.98
2023-05-21T20:30:35.921Z,8.98
2023-05-21T20:33:03.865Z,8.50
2023-05-21T20:35:30.819Z,9.10
2023-05-21T20:37:57.725Z,9.35
2023-05-21T20:40:24.770Z,8.90
2023-05-21T20:42:53.537Z,9.85
2023-05-21T20:45:21.080Z,9.63
2023-05-21T20:47:49.696Z,9.73
2023-05-21T20:50:17.702Z,10.32
2023-05-21T20:52:47.026Z,11.65
2023-05-21T20:55:14.615Z,10.40
2023-05-21T20:57:42.102Z,11.07
2023-05-21T21:00:11.527Z,10.90
2023-05-21T21:02:38.904Z,11.10
2023-05-21T21:05:06.316Z,11.38
2023-05-21T21:07:34.129Z,11.40
2023-05-21T21:10:01.416Z,11.65
2023-05-21T21:12:28.553Z,10.63
2023-05-21T21:14:56.076Z,11.00
2023-05-21T21:17:23.188Z,10.88
2023-05-21T21:19:50.076Z,9.93
2023-05-21T21:22:18.266Z,10.73
2023-05-21T21:24:45.569Z,11.35
2023-05-21T21:27:12.567Z,9.63
2023-05-21T21:29:39.378Z,10.57
2023-05-21T21:32:06.665Z,10.18
2023-05-21T21:34:33.461Z,10.50
2023-05-21T21:37:00.265Z,10.40
2023-05-21T21:39:27.150Z,10.73
2023-05-21T21:41:53.984Z,11.02
2023-05-21T21:44:20.765Z,10.82
2023-05-21T21:46:47.576Z,11.00
2023-05-21T21:49:16.693Z,10.43
2023-05-21T21:51:46.694Z,10.88
2023-05-21T21:54:13.467Z,10.70
2023-05-21T21:56:40.286Z,10.60
2023-05-21T21:59:07.018Z,11.75
2023-05-21T22:01:34.044Z,11.45
2023-05-21T22:04:00.968Z,12.10
2023-05-21T22:06:28.605Z,11.80
2023-05-21T22:08:55.511Z,11.80
2023-05-21T22:11:22.685Z,11.80
2023-05-21T22:13:49.502Z,12.27
2023-05-21T22:16:16.362Z,12.60
2023-05-21T22:18:43.194Z,11.85
2023-05-21T22:21:10.820Z,12.57
2023-05-21T22:23:38.376Z,12.57
2023-05-21T22:26:05.866Z,13.77
2023-05-21T22:28:32.827Z,13.40
2023-05-21T22:30:59.655Z,14.20
2023-05-21T22:33:26.804Z,13.02
2023-05-21T22:35:54.422Z,13.20
2023-05-21T22:38:21.535Z,13.48
2023-05-21T22:40:48.450Z,13.68
2023-05-21T22:43:15.283Z,12.75
2023-05-21T22:45:42.255Z,13.80
2023-05-21T22:48:09.724Z,12.38
2023-05-21T22:50:38.585Z,13.25
2023-05-21T22:53:06.436Z,12.20
2023-05-21T22:55:33.231Z,12.90
2023-05-21T22:58:00.039Z,14.07
2023-05-21T23:00:27.177Z,13.27
2023-05-21T23:02:54.794Z,12.65
2023-05-21T23:05:22.210Z,13.75
2023-05-21T23:07:49.654Z,12.90
2023-05-21T23:10:16.605Z,12.77
2023-05-21T23:12:43.398Z,12.80
2023-05-21T23:15:10.730Z,12.90
2023-05-21T23:17:38.447Z,13.48
2023-05-21T23:20:07.387Z,14.35
2023-05-21T23:22:34.823Z,13.10
2023-05-21T23:25:01.763Z,13.13
2023-05-21T23:27:29.267Z,14.35
2023-05-21T23:29:56.336Z,13.73
2023-05-21T23:32:23.564Z,14.52
2023-05-21T23:34:50.767Z,14.35
2023-05-21T23:37:17.606Z,15.55
2023-05-21T23:39:48.097Z,15.80
2023-05-21T23:42:15.704Z,14.52
2023-05-21T23:44:42.515Z,15.02
2023-05-21T23:47:09.728Z,15.95
2023-05-21T23:49:36.460Z,16.80
2023-05-21T23:52:03.588Z,15.63
2023-05-21T23:54:30.780Z,16.05
2023-05-21T23:56:57.551Z,16.17
2023-05-21T23:59:24.314Z,15.90
